Photometre #714[NE_1.6] Minsk AOT

File : 20200926_714.hum

26/09/2020,05:04:43,TEMP=15.1,BA=5.64,STAT.A=5.0,ExtBa=14.19
26/09/2020,05:09:11,TEMP=15.3,BA=5.64,STAT.A=5.0,ExtBa=14.12
26/09/2020,05:12:21,TEMP=15.5,BA=5.60,STAT.D=5.0,ExtBa=13.92
26/09/2020,05:14:25,TEMP=15.8,BA=5.60,STAT.A=5.0,ExtBa=13.87
26/09/2020,05:18:21,TEMP=15.6,BA=5.60,STAT.D=5.0,ExtBa=14.00
26/09/2020,05:20:39,TEMP=15.9,BA=5.64,STAT.A=5.0,ExtBa=13.91
26/09/2020,05:24:21,TEMP=15.8,BA=5.64,STAT.D=5.0,ExtBa=13.91
26/09/2020,05:27:21,TEMP=16.0,BA=5.64,STAT.D=5.0,ExtBa=13.96
26/09/2020,05:29:20,TEMP=16.4,BA=5.64,STAT.A=5.0,ExtBa=13.83
26/09/2020,05:33:21,TEMP=16.2,BA=5.60,STAT.D=5.0,ExtBa=13.96
26/09/2020,05:36:21,TEMP=16.4,BA=5.60,STAT.D=5.0,ExtBa=14.00
26/09/2020,05:38:20,TEMP=16.7,BA=5.60,STAT.A=5.0,ExtBa=13.90
26/09/2020,05:42:21,TEMP=16.6,BA=5.64,STAT.D=5.0,ExtBa=13.93
26/09/2020,05:45:21,TEMP=16.8,BA=5.64,STAT.D=5.0,ExtBa=13.91
26/09/2020,05:48:21,TEMP=17.0,BA=5.64,STAT.D=5.0,ExtBa=13.90
26/09/2020,05:50:17,TEMP=17.3,BA=5.60,STAT.B=5.0,ExtBa=13.85
26/09/2020,05:59:42,TEMP=17.4,BA=5.60,STAT.A=5.0,ExtBa=13.04
26/09/2020,06:01:55,TEMP=17.6,BA=5.56,STAT.A=5.0,ExtBa=13.20
26/09/2020,06:06:20,TEMP=17.5,BA=5.56,STAT.D=5.0,ExtBa=13.67
26/09/2020,06:09:21,TEMP=17.8,BA=5.56,STAT.A=5.0,ExtBa=13.80
26/09/2020,06:12:22,TEMP=18.0,BA=5.60,STAT.D=5.0,ExtBa=13.90
26/09/2020,06:15:22,TEMP=18.1,BA=5.60,STAT.D=5.0,ExtBa=13.89
26/09/2020,06:17:53,TEMP=18.3,BA=5.60,STAT.A=5.0,ExtBa=13.87
26/09/2020,06:21:20,TEMP=18.3,BA=5.64,STAT.D=5.0,ExtBa=13.90
26/09/2020,06:24:22,TEMP=18.4,BA=5.64,STAT.D=5.0,ExtBa=13.87
26/09/2020,06:27:22,TEMP=18.5,BA=5.64,STAT.D=5.0,ExtBa=13.92
26/09/2020,06:29:20,TEMP=18.8,BA=5.64,STAT.C=5.0,ExtBa=13.85
26/09/2020,06:44:21,TEMP=18.7,BA=5.52,STAT.A=5.0,ExtBa=12.96
26/09/2020,06:48:22,TEMP=18.7,BA=5.52,STAT.D=5.0,ExtBa=13.47
26/09/2020,06:51:22,TEMP=19.0,BA=5.64,STAT.D=5.0,ExtBa=13.67
26/09/2020,06:53:52,TEMP=19.3,BA=5.64,STAT.A=5.0,ExtBa=13.74
26/09/2020,06:57:22,TEMP=19.3,BA=5.64,STAT.D=5.0,ExtBa=13.87
26/09/2020,07:00:22,TEMP=19.4,BA=5.64,STAT.D=5.0,ExtBa=13.90
26/09/2020,07:02:20,TEMP=19.6,BA=5.64,STAT.F,ExtBa=13.83
26/09/2020,07:16:42,TEMP=19.8,BA=5.48,STAT.D=5.0,ExtBa=13.03
26/09/2020,07:24:22,TEMP=20.0,BA=5.60,STAT.D=5.5,ExtBa=13.90
26/09/2020,07:27:22,TEMP=20.3,BA=5.60,STAT.D=5.0,ExtBa=13.92
26/09/2020,07:30:22,TEMP=20.5,BA=5.64,STAT.D=5.0,ExtBa=13.92
26/09/2020,07:32:19,TEMP=20.8,BA=5.64,STAT.D=5.0,ExtBa=13.85
26/09/2020,07:36:22,TEMP=20.7,BA=5.64,STAT.D=5.5,ExtBa=13.98
26/09/2020,07:39:22,TEMP=20.8,BA=5.64,STAT.D=5.5,ExtBa=13.99
26/09/2020,07:42:22,TEMP=21.0,BA=5.60,STAT.D=5.5,ExtBa=13.96
26/09/2020,07:45:22,TEMP=21.0,BA=5.60,STAT.D=5.0,ExtBa=13.97
26/09/2020,07:47:17,TEMP=21.2,BA=5.60,STAT.D=5.0,ExtBa=13.89
26/09/2020,07:51:22,TEMP=21.1,BA=5.64,STAT.D=5.5,ExtBa=14.01
26/09/2020,07:54:22,TEMP=21.2,BA=5.64,STAT.D=5.5,ExtBa=13.99
26/09/2020,07:57:22,TEMP=21.4,BA=5.64,STAT.D=5.5,ExtBa=13.89
26/09/2020,08:00:22,TEMP=21.5,BA=5.64,STAT.D=5.5,ExtBa=13.94
26/09/2020,08:02:17,TEMP=21.9,BA=5.64,STAT.F,ExtBa=13.89
26/09/2020,08:16:31,TEMP=22.2,BA=5.48,STAT.D=5.5,ExtBa=13.01
26/09/2020,08:21:22,TEMP=22.1,BA=5.64,STAT.D=5.5,ExtBa=13.67
26/09/2020,08:24:22,TEMP=22.4,BA=5.64,STAT.D=5.5,ExtBa=13.82
26/09/2020,08:27:22,TEMP=22.6,BA=5.64,STAT.D=5.5,ExtBa=13.89
26/09/2020,08:30:22,TEMP=22.8,BA=5.64,STAT.D=5.5,ExtBa=13.92
26/09/2020,08:32:18,TEMP=23.2,BA=5.64,STAT.D=5.5,ExtBa=13.86
26/09/2020,08:36:22,TEMP=23.1,BA=5.64,STAT.D=5.5,ExtBa=13.95
26/09/2020,08:39:22,TEMP=23.4,BA=5.64,STAT.D=5.5,ExtBa=13.96
26/09/2020,08:42:22,TEMP=23.6,BA=5.52,STAT.D=5.5,ExtBa=13.97
26/09/2020,08:45:22,TEMP=23.7,BA=5.52,STAT.D=5.5,ExtBa=13.97
26/09/2020,08:47:15,TEMP=24.0,BA=5.52,STAT.D=5.5,ExtBa=13.90
26/09/2020,08:51:22,TEMP=23.7,BA=5.60,STAT.D=5.5,ExtBa=13.98
26/09/2020,08:54:22,TEMP=23.8,BA=5.60,STAT.D=5.5,ExtBa=13.98
26/09/2020,08:57:22,TEMP=23.8,BA=5.60,STAT.D=5.5,ExtBa=13.98
26/09/2020,09:00:22,TEMP=23.8,BA=5.60,STAT.D=5.5,ExtBa=13.98
26/09/2020,09:02:17,TEMP=24.0,BA=5.60,STAT.F,ExtBa=13.90
26/09/2020,09:16:53,TEMP=24.0,BA=5.44,STAT.D=5.5,ExtBa=12.98
26/09/2020,09:21:22,TEMP=24.0,BA=5.60,STAT.D=5.5,ExtBa=13.61
26/09/2020,09:24:22,TEMP=24.3,BA=5.60,STAT.D=5.5,ExtBa=13.79
26/09/2020,09:27:22,TEMP=24.5,BA=5.60,STAT.D=5.5,ExtBa=13.87
26/09/2020,09:30:22,TEMP=24.5,BA=5.60,STAT.D=5.5,ExtBa=13.93
26/09/2020,09:32:16,TEMP=24.7,BA=5.60,STAT.D=5.5,ExtBa=13.86
26/09/2020,09:36:22,TEMP=24.6,BA=5.60,STAT.D=5.5,ExtBa=13.98
26/09/2020,09:39:22,TEMP=24.7,BA=5.60,STAT.D=5.5,ExtBa=13.97
26/09/2020,09:42:22,TEMP=24.8,BA=5.48,STAT.D=5.5,ExtBa=13.98
26/09/2020,09:45:22,TEMP=24.9,BA=5.48,STAT.D=5.5,ExtBa=13.98
26/09/2020,09:47:15,TEMP=25.1,BA=5.48,STAT.D=5.5,ExtBa=13.92
26/09/2020,09:51:22,TEMP=24.8,BA=5.60,STAT.D=5.5,ExtBa=13.96
26/09/2020,09:54:22,TEMP=25.0,BA=5.60,STAT.D=5.5,ExtBa=13.97
26/09/2020,09:57:22,TEMP=25.0,BA=5.60,STAT.D=5.5,ExtBa=13.97
26/09/2020,10:00:22,TEMP=25.0,BA=5.60,STAT.D=5.5,ExtBa=13.96
26/09/2020,10:02:16,TEMP=25.3,BA=5.60,STAT.F,ExtBa=13.90
26/09/2020,10:16:27,TEMP=24.7,BA=5.44,STAT.D=5.5,ExtBa=12.99
26/09/2020,10:21:22,TEMP=24.6,BA=5.60,STAT.D=5.5,ExtBa=13.66
26/09/2020,10:24:22,TEMP=24.9,BA=5.60,STAT.D=5.5,ExtBa=13.81
26/09/2020,10:27:22,TEMP=24.9,BA=5.60,STAT.D=5.5,ExtBa=13.88
26/09/2020,10:30:22,TEMP=25.1,BA=5.60,STAT.D=5.5,ExtBa=13.90
26/09/2020,10:32:15,TEMP=25.4,BA=5.60,STAT.D=5.5,ExtBa=13.87
26/09/2020,10:36:22,TEMP=25.2,BA=5.60,STAT.D=5.5,ExtBa=13.95
26/09/2020,10:39:22,TEMP=25.3,BA=5.60,STAT.D=5.5,ExtBa=13.92
26/09/2020,10:42:22,TEMP=25.3,BA=5.44,STAT.D=5.5,ExtBa=13.95
26/09/2020,10:45:22,TEMP=25.5,BA=5.44,STAT.D=5.5,ExtBa=13.96
26/09/2020,10:47:15,TEMP=25.8,BA=5.44,STAT.D=5.5,ExtBa=13.88
26/09/2020,10:51:22,TEMP=25.5,BA=5.60,STAT.D=5.5,ExtBa=13.98
26/09/2020,10:54:22,TEMP=25.6,BA=5.60,STAT.D=5.5,ExtBa=13.97
26/09/2020,10:57:22,TEMP=25.8,BA=5.60,STAT.D=5.5,ExtBa=13.96
26/09/2020,11:00:22,TEMP=25.9,BA=5.60,STAT.D=5.5,ExtBa=13.96
26/09/2020,11:02:17,TEMP=26.1,BA=5.60,STAT.F,ExtBa=13.88
26/09/2020,11:16:16,TEMP=25.9,BA=5.44,STAT.D=5.5,ExtBa=13.06
26/09/2020,11:18:22,TEMP=26.0,BA=5.44,STAT.D=5.5,ExtBa=13.29
26/09/2020,11:21:22,TEMP=25.7,BA=5.48,STAT.D=5.5,ExtBa=13.61
26/09/2020,11:24:22,TEMP=25.6,BA=5.48,STAT.D=5.5,ExtBa=13.78
26/09/2020,11:27:22,TEMP=25.7,BA=5.48,STAT.D=5.5,ExtBa=13.88
26/09/2020,11:30:22,TEMP=25.7,BA=5.60,STAT.D=5.5,ExtBa=13.91
26/09/2020,11:32:17,TEMP=25.9,BA=5.60,STAT.D=5.5,ExtBa=13.83
26/09/2020,11:36:22,TEMP=25.7,BA=5.60,STAT.D=5.5,ExtBa=13.96
26/09/2020,11:39:22,TEMP=25.9,BA=5.60,STAT.D=5.5,ExtBa=13.95
26/09/2020,11:42:22,TEMP=25.9,BA=5.44,STAT.D=5.5,ExtBa=13.96
26/09/2020,11:45:22,TEMP=25.9,BA=5.44,STAT.D=5.5,ExtBa=13.93
26/09/2020,11:47:15,TEMP=26.2,BA=5.44,STAT.D=5.5,ExtBa=13.84
26/09/2020,11:51:22,TEMP=25.8,BA=5.60,STAT.D=5.5,ExtBa=13.96
26/09/2020,11:54:22,TEMP=25.9,BA=5.60,STAT.D=5.5,ExtBa=13.93
26/09/2020,11:57:22,TEMP=25.9,BA=5.60,STAT.D=5.5,ExtBa=13.94
26/09/2020,12:00:22,TEMP=25.8,BA=5.60,STAT.D=5.5,ExtBa=13.93
26/09/2020,12:02:33,TEMP=25.9,BA=5.60,STAT.F,ExtBa=13.77
26/09/2020,12:16:59,TEMP=25.6,BA=5.40,STAT.D=5.5,ExtBa=12.95
26/09/2020,12:21:22,TEMP=25.4,BA=5.60,STAT.D=5.5,ExtBa=13.59
26/09/2020,12:24:22,TEMP=25.5,BA=5.60,STAT.D=5.5,ExtBa=13.77
26/09/2020,12:27:22,TEMP=25.5,BA=5.60,STAT.D=5.5,ExtBa=13.82
26/09/2020,12:30:22,TEMP=25.6,BA=5.60,STAT.D=5.5,ExtBa=13.86
26/09/2020,12:32:17,TEMP=25.7,BA=5.60,STAT.D=5.5,ExtBa=13.79
26/09/2020,12:36:22,TEMP=25.4,BA=5.60,STAT.D=5.5,ExtBa=13.93
26/09/2020,12:39:22,TEMP=25.6,BA=5.60,STAT.D=5.5,ExtBa=13.89
26/09/2020,12:42:22,TEMP=25.7,BA=5.44,STAT.D=5.5,ExtBa=13.83
26/09/2020,12:45:22,TEMP=25.8,BA=5.44,STAT.D=5.5,ExtBa=13.88
26/09/2020,12:47:21,TEMP=26.0,BA=5.44,STAT.D=5.5,ExtBa=13.72
26/09/2020,12:51:22,TEMP=25.7,BA=5.60,STAT.D=5.5,ExtBa=13.87
26/09/2020,12:54:22,TEMP=25.8,BA=5.60,STAT.D=5.5,ExtBa=13.83
26/09/2020,12:57:22,TEMP=25.8,BA=5.60,STAT.D=5.5,ExtBa=13.85
26/09/2020,13:00:22,TEMP=25.7,BA=5.60,STAT.D=5.5,ExtBa=13.84
26/09/2020,13:02:18,TEMP=25.8,BA=5.60,STAT.F,ExtBa=13.75
26/09/2020,13:16:32,TEMP=25.2,BA=5.40,STAT.A=5.5,ExtBa=12.97
26/09/2020,13:21:21,TEMP=25.0,BA=5.60,STAT.D=5.5,ExtBa=13.66
26/09/2020,13:23:18,TEMP=25.4,BA=5.60,STAT.A=5.5,ExtBa=13.64
26/09/2020,13:27:22,TEMP=25.1,BA=5.60,STAT.D=5.5,ExtBa=13.86
26/09/2020,13:30:22,TEMP=25.1,BA=5.60,STAT.D=5.5,ExtBa=13.89
26/09/2020,13:33:21,TEMP=25.1,BA=5.60,STAT.D=5.5,ExtBa=13.90
26/09/2020,13:35:20,TEMP=25.2,BA=5.60,STAT.C=5.5,ExtBa=13.82
26/09/2020,13:49:30,TEMP=24.7,BA=5.40,STAT.A=5.5,ExtBa=12.97
26/09/2020,13:53:13,TEMP=24.5,BA=5.40,STAT.A=5.5,ExtBa=13.49
26/09/2020,13:57:21,TEMP=24.4,BA=5.40,STAT.D=5.5,ExtBa=13.81
26/09/2020,14:00:21,TEMP=24.5,BA=5.60,STAT.D=5.5,ExtBa=13.85
26/09/2020,14:02:16,TEMP=24.7,BA=5.60,STAT.A=5.5,ExtBa=13.82
26/09/2020,14:06:21,TEMP=24.4,BA=5.60,STAT.D=5.5,ExtBa=13.95
26/09/2020,14:08:16,TEMP=24.6,BA=5.60,STAT.A=5.5,ExtBa=13.82
26/09/2020,14:12:22,TEMP=24.3,BA=5.48,STAT.D=5.5,ExtBa=13.94
26/09/2020,14:14:21,TEMP=24.6,BA=5.48,STAT.B=5.5,ExtBa=13.83
26/09/2020,14:24:21,TEMP=24.0,BA=5.40,STAT.D=5.5,ExtBa=13.20
26/09/2020,14:26:18,TEMP=24.1,BA=5.40,STAT.A=5.5,ExtBa=13.37
26/09/2020,14:30:21,TEMP=23.8,BA=5.60,STAT.D=5.5,ExtBa=13.74
26/09/2020,14:33:21,TEMP=23.9,BA=5.60,STAT.D=5.5,ExtBa=13.85
26/09/2020,14:35:17,TEMP=24.0,BA=5.60,STAT.A=5.5,ExtBa=13.79
26/09/2020,14:39:21,TEMP=23.6,BA=5.60,STAT.D=5.5,ExtBa=13.94
26/09/2020,14:41:55,TEMP=23.7,BA=5.48,STAT.A=5.5,ExtBa=13.91
26/09/2020,14:45:21,TEMP=23.5,BA=5.48,STAT.D=5.5,ExtBa=13.94
26/09/2020,14:48:09,TEMP=23.5,BA=5.48,STAT.A=5.5,ExtBa=13.93
26/09/2020,14:51:21,TEMP=23.4,BA=5.56,STAT.D=5.5,ExtBa=13.92
26/09/2020,14:53:23,TEMP=23.5,BA=5.56,STAT.A=5.5,ExtBa=13.87
26/09/2020,14:57:21,TEMP=23.1,BA=5.56,STAT.D=5.5,ExtBa=13.92
26/09/2020,14:59:19,TEMP=23.3,BA=5.56,STAT.A=5.5,ExtBa=13.82